sensor_id;sensor_type;location;lat;lon;timestamp;temperature;humidity
14709;DHT22;7445;50.774;4.944;2023-02-28T00:00:19;0.30;99.90
14709;DHT22;7445;50.774;4.944;2023-02-28T00:02:46;0.30;99.90
14709;DHT22;7445;50.774;4.944;2023-02-28T00:05:14;0.30;99.90
14709;DHT22;7445;50.774;4.944;2023-02-28T00:07:40;0.20;99.90
14709;DHT22;7445;50.774;4.944;2023-02-28T00:10:10;0.30;99.90
14709;DHT22;7445;50.774;4.944;2023-02-28T00:12:37;0.30;99.90
14709;DHT22;7445;50.774;4.944;2023-02-28T00:15:05;0.30;99.90
14709;DHT22;7445;50.774;4.944;2023-02-28T00:17:31;0.30;99.90
14709;DHT22;7445;50.774;4.944;2023-02-28T00:19:57;0.20;99.90
14709;DHT22;7445;50.774;4.944;2023-02-28T00:22:30;0.20;99.90
14709;DHT22;7445;50.774;4.944;2023-02-28T00:24:56;0.20;99.90
14709;DHT22;7445;50.774;4.944;2023-02-28T00:27:21;0.20;99.90
14709;DHT22;7445;50.774;4.944;2023-02-28T00:29:47;0.20;99.90
14709;DHT22;7445;50.774;4.944;2023-02-28T00:32:13;0.20;99.90
14709;DHT22;7445;50.774;4.944;2023-02-28T00:34:38;0.20;99.90
14709;DHT22;7445;50.774;4.944;2023-02-28T00:37:08;0.10;99.90
14709;DHT22;7445;50.774;4.944;2023-02-28T00:39:35;0.10;99.90
14709;DHT22;7445;50.774;4.944;2023-02-28T00:42:02;0.10;99.90
14709;DHT22;7445;50.774;4.944;2023-02-28T00:44:29;0.10;99.90
14709;DHT22;7445;50.774;4.944;2023-02-28T00:46:56;0.10;99.90
14709;DHT22;7445;50.774;4.944;2023-02-28T00:49:22;0.10;99.90
14709;DHT22;7445;50.774;4.944;2023-02-28T00:51:48;0.10;99.90
14709;DHT22;7445;50.774;4.944;2023-02-28T00:54:13;0.10;99.90
14709;DHT22;7445;50.774;4.944;2023-02-28T00:56:40;0.10;99.90
14709;DHT22;7445;50.774;4.944;2023-02-28T00:59:07;0.00;99.90
14709;DHT22;7445;50.774;4.944;2023-02-28T01:01:33;0.10;99.90
14709;DHT22;7445;50.774;4.944;2023-02-28T01:03:59;0.00;99.90
14709;DHT22;7445;50.774;4.944;2023-02-28T01:06:24;0.00;99.90
14709;DHT22;7445;50.774;4.944;2023-02-28T01:08:51;0.00;99.90
14709;DHT22;7445;50.774;4.944;2023-02-28T01:11:18;0.00;99.90
14709;DHT22;7445;50.774;4.944;2023-02-28T01:13:45;-0.10;99.90
14709;DHT22;7445;50.774;4.944;2023-02-28T01:16:11;-0.10;99.90
14709;DHT22;7445;50.774;4.944;2023-02-28T01:18:38;-0.10;99.90
14709;DHT22;7445;50.774;4.944;2023-02-28T01:21:09;-0.10;99.90
14709;DHT22;7445;50.774;4.944;2023-02-28T01:23:36;-0.20;99.90
14709;DHT22;7445;50.774;4.944;2023-02-28T01:26:06;-0.10;99.90
14709;DHT22;7445;50.774;4.944;2023-02-28T01:28:32;-0.20;99.90
14709;DHT22;7445;50.774;4.944;2023-02-28T01:30:58;-0.20;99.90
14709;DHT22;7445;50.774;4.944;2023-02-28T01:33:23;-0.20;99.90
14709;DHT22;7445;50.774;4.944;2023-02-28T01:35:49;-0.20;99.90
14709;DHT22;7445;50.774;4.944;2023-02-28T01:38:15;-0.20;99.90
14709;DHT22;7445;50.774;4.944;2023-02-28T01:40:41;-0.30;99.90
14709;DHT22;7445;50.774;4.944;2023-02-28T01:43:21;-0.30;99.90
14709;DHT22;7445;50.774;4.944;2023-02-28T01:45:46;-0.30;99.90
14709;DHT22;7445;50.774;4.944;2023-02-28T01:48:12;-0.30;99.90
14709;DHT22;7445;50.774;4.944;2023-02-28T01:50:41;-0.30;99.90
14709;DHT22;7445;50.774;4.944;2023-02-28T01:53:12;-0.30;99.90
14709;DHT22;7445;50.774;4.944;2023-02-28T01:55:40;-0.30;99.90
14709;DHT22;7445;50.774;4.944;2023-02-28T01:58:06;-0.40;99.90
14709;DHT22;7445;50.774;4.944;2023-02-28T02:00:32;-0.40;99.90
14709;DHT22;7445;50.774;4.944;2023-02-28T02:03:07;-0.40;99.90
14709;DHT22;7445;50.774;4.944;2023-02-28T02:05:36;-0.40;99.90
14709;DHT22;7445;50.774;4.944;2023-02-28T02:08:05;-0.50;99.90
14709;DHT22;7445;50.774;4.944;2023-02-28T02:10:42;-0.50;99.90
14709;DHT22;7445;50.774;4.944;2023-02-28T02:29:42;-0.60;99.90
14709;DHT22;7445;50.774;4.944;2023-02-28T02:32:35;-0.50;99.90
14709;DHT22;7445;50.774;4.944;2023-02-28T02:40:38;-0.60;99.90
14709;DHT22;7445;50.774;4.944;2023-02-28T02:43:11;-0.50;99.90
14709;DHT22;7445;50.774;4.944;2023-02-28T02:45:59;-0.50;99.90
14709;DHT22;7445;50.774;4.944;2023-02-28T02:48:30;-0.50;99.90
14709;DHT22;7445;50.774;4.944;2023-02-28T02:51:01;-0.60;99.90
14709;DHT22;7445;50.774;4.944;2023-02-28T02:53:53;-0.60;99.90
14709;DHT22;7445;50.774;4.944;2023-02-28T02:56:26;-0.60;99.90
14709;DHT22;7445;50.774;4.944;2023-02-28T02:58:55;-0.70;99.90
14709;DHT22;7445;50.774;4.944;2023-02-28T03:01:24;-0.70;99.90
14709;DHT22;7445;50.774;4.944;2023-02-28T03:03:58;-0.70;99.90
14709;DHT22;7445;50.774;4.944;2023-02-28T03:06:25;-0.70;99.90
14709;DHT22;7445;50.774;4.944;2023-02-28T03:08:50;-0.70;99.90
14709;DHT22;7445;50.774;4.944;2023-02-28T03:11:16;-0.70;99.90
14709;DHT22;7445;50.774;4.944;2023-02-28T03:14:30;-0.80;99.90
14709;DHT22;7445;50.774;4.944;2023-02-28T03:19:33;-0.80;99.90
14709;DHT22;7445;50.774;4.944;2023-02-28T03:24:52;-0.80;99.90
14709;DHT22;7445;50.774;4.944;2023-02-28T03:27:28;-0.90;99.90
14709;DHT22;7445;50.774;4.944;2023-02-28T03:30:10;-1.00;99.90
14709;DHT22;7445;50.774;4.944;2023-02-28T03:35:37;-1.00;99.90
14709;DHT22;7445;50.774;4.944;2023-02-28T03:38:12;-1.00;99.90
14709;DHT22;7445;50.774;4.944;2023-02-28T03:40:45;-1.00;99.90
14709;DHT22;7445;50.774;4.944;2023-02-28T03:43:18;-1.10;99.90
14709;DHT22;7445;50.774;4.944;2023-02-28T03:45:45;-1.10;99.90
14709;DHT22;7445;50.774;4.944;2023-02-28T03:48:21;-1.10;99.90
14709;DHT22;7445;50.774;4.944;2023-02-28T03:50:54;-1.10;99.90
14709;DHT22;7445;50.774;4.944;2023-02-28T03:53:27;-1.10;99.90
14709;DHT22;7445;50.774;4.944;2023-02-28T03:56:19;-1.10;99.90
14709;DHT22;7445;50.774;4.944;2023-02-28T03:58:55;-1.10;99.90
14709;DHT22;7445;50.774;4.944;2023-02-28T04:01:43;-1.00;99.90
14709;DHT22;7445;50.774;4.944;2023-02-28T04:04:10;-0.90;99.90
14709;DHT22;7445;50.774;4.944;2023-02-28T04:06:36;-0.80;99.90
14709;DHT22;7445;50.774;4.944;2023-02-28T04:09:05;-0.70;99.90
14709;DHT22;7445;50.774;4.944;2023-02-28T04:13:57;-0.60;99.90
14709;DHT22;7445;50.774;4.944;2023-02-28T04:16:22;-0.50;99.90
14709;DHT22;7445;50.774;4.944;2023-02-28T04:18:48;-0.50;99.90
14709;DHT22;7445;50.774;4.944;2023-02-28T04:21:14;-0.50;99.90
14709;DHT22;7445;50.774;4.944;2023-02-28T04:23:39;-0.50;99.90
14709;DHT22;7445;50.774;4.944;2023-02-28T04:26:05;-0.40;99.90
14709;DHT22;7445;50.774;4.944;2023-02-28T04:28:32;-0.40;99.90
14709;DHT22;7445;50.774;4.944;2023-02-28T04:31:00;-0.40;99.90
14709;DHT22;7445;50.774;4.944;2023-02-28T04:33:28;-0.40;99.90
14709;DHT22;7445;50.774;4.944;2023-02-28T04:36:05;-0.40;99.90
14709;DHT22;7445;50.774;4.944;2023-02-28T04:38:34;-0.40;99.90
14709;DHT22;7445;50.774;4.944;2023-02-28T04:41:00;-0.30;99.90
14709;DHT22;7445;50.774;4.944;2023-02-28T04:43:28;-0.30;99.90
14709;DHT22;7445;50.774;4.944;2023-02-28T04:45:56;-0.30;99.90
14709;DHT22;7445;50.774;4.944;2023-02-28T04:48:27;-0.30;99.90
14709;DHT22;7445;50.774;4.944;2023-02-28T04:50:52;-0.30;99.90
14709;DHT22;7445;50.774;4.944;2023-02-28T04:53:18;-0.30;99.90
14709;DHT22;7445;50.774;4.944;2023-02-28T04:55:44;-0.30;99.90
14709;DHT22;7445;50.774;4.944;2023-02-28T04:58:11;-0.40;99.90
14709;DHT22;7445;50.774;4.944;2023-02-28T05:00:39;-0.40;99.90
14709;DHT22;7445;50.774;4.944;2023-02-28T05:03:05;-0.50;99.90
14709;DHT22;7445;50.774;4.944;2023-02-28T05:05:31;-0.60;99.90
14709;DHT22;7445;50.774;4.944;2023-02-28T05:07:58;-0.70;99.90
14709;DHT22;7445;50.774;4.944;2023-02-28T05:10:25;-0.70;99.90
14709;DHT22;7445;50.774;4.944;2023-02-28T05:12:52;-0.80;99.90
14709;DHT22;7445;50.774;4.944;2023-02-28T05:15:20;-0.80;99.90
14709;DHT22;7445;50.774;4.944;2023-02-28T05:17:47;-0.80;99.90
14709;DHT22;7445;50.774;4.944;2023-02-28T05:20:13;-0.90;99.90
14709;DHT22;7445;50.774;4.944;2023-02-28T05:22:41;-0.90;99.90
14709;DHT22;7445;50.774;4.944;2023-02-28T05:25:08;-0.90;99.90
14709;DHT22;7445;50.774;4.944;2023-02-28T05:27:36;-1.00;99.90
14709;DHT22;7445;50.774;4.944;2023-02-28T05:30:04;-1.00;99.90
14709;DHT22;7445;50.774;4.944;2023-02-28T05:32:32;-1.00;99.90
14709;DHT22;7445;50.774;4.944;2023-02-28T05:35:00;-1.10;99.90
14709;DHT22;7445;50.774;4.944;2023-02-28T05:37:26;-1.20;99.90
14709;DHT22;7445;50.774;4.944;2023-02-28T05:39:51;-1.20;99.90
14709;DHT22;7445;50.774;4.944;2023-02-28T05:42:18;-1.20;99.90
14709;DHT22;7445;50.774;4.944;2023-02-28T05:44:45;-1.20;99.90
14709;DHT22;7445;50.774;4.944;2023-02-28T05:47:11;-1.10;99.90
14709;DHT22;7445;50.774;4.944;2023-02-28T05:49:41;-1.10;99.90
14709;DHT22;7445;50.774;4.944;2023-02-28T05:52:08;-1.10;99.90
14709;DHT22;7445;50.774;4.944;2023-02-28T05:54:34;-1.10;99.90
14709;DHT22;7445;50.774;4.944;2023-02-28T05:57:05;-1.10;99.90
14709;DHT22;7445;50.774;4.944;2023-02-28T05:59:32;-1.10;99.90
14709;DHT22;7445;50.774;4.944;2023-02-28T06:01:59;-1.10;99.90
14709;DHT22;7445;50.774;4.944;2023-02-28T06:04:25;-1.00;99.90
14709;DHT22;7445;50.774;4.944;2023-02-28T06:06:50;-1.00;99.90
14709;DHT22;7445;50.774;4.944;2023-02-28T06:09:18;-1.00;99.90
14709;DHT22;7445;50.774;4.944;2023-02-28T06:11:44;-1.00;99.90
14709;DHT22;7445;50.774;4.944;2023-02-28T06:14:30;-1.10;99.90
14709;DHT22;7445;50.774;4.944;2023-02-28T06:16:57;-1.10;99.90
14709;DHT22;7445;50.774;4.944;2023-02-28T06:19:23;-1.20;99.90
14709;DHT22;7445;50.774;4.944;2023-02-28T06:21:55;-1.20;99.90
14709;DHT22;7445;50.774;4.944;2023-02-28T06:24:23;-1.10;99.90
14709;DHT22;7445;50.774;4.944;2023-02-28T06:26:49;-1.20;99.90
14709;DHT22;7445;50.774;4.944;2023-02-28T06:29:15;-1.20;99.90
14709;DHT22;7445;50.774;4.944;2023-02-28T06:31:44;-1.20;99.90
14709;DHT22;7445;50.774;4.944;2023-02-28T06:34:10;-1.10;99.90
14709;DHT22;7445;50.774;4.944;2023-02-28T06:36:40;-1.10;99.90
14709;DHT22;7445;50.774;4.944;2023-02-28T06:39:07;-1.10;99.90
14709;DHT22;7445;50.774;4.944;2023-02-28T06:41:33;-1.10;99.90
14709;DHT22;7445;50.774;4.944;2023-02-28T06:44:04;-1.10;99.90
14709;DHT22;7445;50.774;4.944;2023-02-28T06:46:31;-1.00;99.90
14709;DHT22;7445;50.774;4.944;2023-02-28T06:48:57;-1.00;99.90
14709;DHT22;7445;50.774;4.944;2023-02-28T06:51:23;-1.00;99.90
14709;DHT22;7445;50.774;4.944;2023-02-28T06:53:50;-0.90;99.90
14709;DHT22;7445;50.774;4.944;2023-02-28T06:56:17;-0.90;99.90
14709;DHT22;7445;50.774;4.944;2023-02-28T06:58:47;-0.90;99.90
14709;DHT22;7445;50.774;4.944;2023-02-28T07:01:14;-0.80;99.90
14709;DHT22;7445;50.774;4.944;2023-02-28T07:03:39;-0.80;99.90
14709;DHT22;7445;50.774;4.944;2023-02-28T07:06:06;-0.80;99.90
14709;DHT22;7445;50.774;4.944;2023-02-28T07:08:32;-0.80;99.90
14709;DHT22;7445;50.774;4.944;2023-02-28T07:10:58;-0.80;99.90
14709;DHT22;7445;50.774;4.944;2023-02-28T07:13:24;-0.70;99.90
14709;DHT22;7445;50.774;4.944;2023-02-28T07:16:00;-0.60;99.90
14709;DHT22;7445;50.774;4.944;2023-02-28T07:18:26;-0.60;99.90
14709;DHT22;7445;50.774;4.944;2023-02-28T07:20:52;-0.50;99.90
14709;DHT22;7445;50.774;4.944;2023-02-28T07:23:19;-0.40;99.90
14709;DHT22;7445;50.774;4.944;2023-02-28T07:25:45;-0.40;99.90
14709;DHT22;7445;50.774;4.944;2023-02-28T07:28:11;-0.30;99.90
14709;DHT22;7445;50.774;4.944;2023-02-28T07:30:36;-0.30;99.90
14709;DHT22;7445;50.774;4.944;2023-02-28T07:33:02;-0.20;99.90
14709;DHT22;7445;50.774;4.944;2023-02-28T07:35:29;-0.20;99.90
14709;DHT22;7445;50.774;4.944;2023-02-28T07:37:54;-0.10;99.90
14709;DHT22;7445;50.774;4.944;2023-02-28T07:40:20;0.00;99.90
14709;DHT22;7445;50.774;4.944;2023-02-28T07:42:45;0.00;99.90
14709;DHT22;7445;50.774;4.944;2023-02-28T07:45:11;0.10;99.90
14709;DHT22;7445;50.774;4.944;2023-02-28T07:47:38;0.10;99.90
14709;DHT22;7445;50.774;4.944;2023-02-28T07:50:05;0.20;99.90
14709;DHT22;7445;50.774;4.944;2023-02-28T07:52:31;0.30;99.90
14709;DHT22;7445;50.774;4.944;2023-02-28T07:54:57;0.30;99.90
14709;DHT22;7445;50.774;4.944;2023-02-28T07:57:23;0.40;99.90
14709;DHT22;7445;50.774;4.944;2023-02-28T07:59:48;0.40;99.90
14709;DHT22;7445;50.774;4.944;2023-02-28T08:02:16;0.50;99.90
14709;DHT22;7445;50.774;4.944;2023-02-28T08:04:41;0.60;99.90
14709;DHT22;7445;50.774;4.944;2023-02-28T08:07:07;0.60;99.90
14709;DHT22;7445;50.774;4.944;2023-02-28T08:09:33;0.70;99.90
14709;DHT22;7445;50.774;4.944;2023-02-28T08:11:59;0.70;99.90
14709;DHT22;7445;50.774;4.944;2023-02-28T08:14:25;0.80;99.90
14709;DHT22;7445;50.774;4.944;2023-02-28T08:16:51;0.80;99.90
14709;DHT22;7445;50.774;4.944;2023-02-28T08:19:17;0.90;99.90
14709;DHT22;7445;50.774;4.944;2023-02-28T08:21:42;0.90;99.90
14709;DHT22;7445;50.774;4.944;2023-02-28T08:24:08;0.90;99.90
14709;DHT22;7445;50.774;4.944;2023-02-28T08:26:33;0.90;99.90
14709;DHT22;7445;50.774;4.944;2023-02-28T08:28:59;1.00;99.90
14709;DHT22;7445;50.774;4.944;2023-02-28T08:31:25;1.20;99.90
14709;DHT22;7445;50.774;4.944;2023-02-28T08:33:52;1.20;99.90
14709;DHT22;7445;50.774;4.944;2023-02-28T08:36:19;1.20;99.90
14709;DHT22;7445;50.774;4.944;2023-02-28T08:38:44;1.30;99.90
14709;DHT22;7445;50.774;4.944;2023-02-28T08:41:12;1.30;99.90
14709;DHT22;7445;50.774;4.944;2023-02-28T08:43:39;1.40;99.90
14709;DHT22;7445;50.774;4.944;2023-02-28T08:46:06;1.40;99.90
14709;DHT22;7445;50.774;4.944;2023-02-28T08:48:34;1.50;99.90
14709;DHT22;7445;50.774;4.944;2023-02-28T08:51:05;1.50;99.90
14709;DHT22;7445;50.774;4.944;2023-02-28T08:53:32;1.70;99.90
14709;DHT22;7445;50.774;4.944;2023-02-28T08:56:04;1.80;99.90
14709;DHT22;7445;50.774;4.944;2023-02-28T08:58:30;1.90;99.90
14709;DHT22;7445;50.774;4.944;2023-02-28T09:00:56;2.00;99.90
14709;DHT22;7445;50.774;4.944;2023-02-28T09:03:22;2.00;99.90
14709;DHT22;7445;50.774;4.944;2023-02-28T09:05:57;2.00;99.90
14709;DHT22;7445;50.774;4.944;2023-02-28T09:08:25;2.10;99.90
14709;DHT22;7445;50.774;4.944;2023-02-28T09:10:51;2.20;99.90
14709;DHT22;7445;50.774;4.944;2023-02-28T09:13:18;2.40;99.90
14709;DHT22;7445;50.774;4.944;2023-02-28T09:15:44;2.30;99.90
14709;DHT22;7445;50.774;4.944;2023-02-28T09:18:09;2.40;99.90
14709;DHT22;7445;50.774;4.944;2023-02-28T09:20:38;2.50;99.90
14709;DHT22;7445;50.774;4.944;2023-02-28T09:23:04;2.50;99.90
14709;DHT22;7445;50.774;4.944;2023-02-28T09:25:29;2.70;99.90
14709;DHT22;7445;50.774;4.944;2023-02-28T09:27:56;2.80;99.90
14709;DHT22;7445;50.774;4.944;2023-02-28T09:30:21;2.80;99.90
14709;DHT22;7445;50.774;4.944;2023-02-28T09:32:47;2.80;99.90
14709;DHT22;7445;50.774;4.944;2023-02-28T09:35:18;2.80;99.90
14709;DHT22;7445;50.774;4.944;2023-02-28T09:37:44;2.90;99.90
14709;DHT22;7445;50.774;4.944;2023-02-28T09:40:11;3.00;99.90
14709;DHT22;7445;50.774;4.944;2023-02-28T09:42:37;3.20;99.90
14709;DHT22;7445;50.774;4.944;2023-02-28T09:45:21;3.30;99.90
14709;DHT22;7445;50.774;4.944;2023-02-28T09:47:48;3.30;99.90
14709;DHT22;7445;50.774;4.944;2023-02-28T09:52:53;3.40;99.90
14709;DHT22;7445;50.774;4.944;2023-02-28T09:55:39;3.50;99.90
14709;DHT22;7445;50.774;4.944;2023-02-28T10:00:54;3.60;99.90
14709;DHT22;7445;50.774;4.944;2023-02-28T10:03:38;3.60;99.90
14709;DHT22;7445;50.774;4.944;2023-02-28T10:06:16;3.80;99.90
14709;DHT22;7445;50.774;4.944;2023-02-28T10:08:59;3.80;99.90
14709;DHT22;7445;50.774;4.944;2023-02-28T10:11:27;3.80;99.90
14709;DHT22;7445;50.774;4.944;2023-02-28T10:14:02;3.80;99.90
14709;DHT22;7445;50.774;4.944;2023-02-28T10:16:44;3.90;99.90
14709;DHT22;7445;50.774;4.944;2023-02-28T10:19:34;3.90;99.90
14709;DHT22;7445;50.774;4.944;2023-02-28T10:22:36;4.00;99.90
14709;DHT22;7445;50.774;4.944;2023-02-28T10:25:19;4.20;99.90
14709;DHT22;7445;50.774;4.944;2023-02-28T10:27:45;4.30;99.90
14709;DHT22;7445;50.774;4.944;2023-02-28T10:30:13;4.30;99.90
14709;DHT22;7445;50.774;4.944;2023-02-28T10:55:35;5.00;99.90
14709;DHT22;7445;50.774;4.944;2023-02-28T10:58:01;5.10;99.90
14709;DHT22;7445;50.774;4.944;2023-02-28T11:00:34;5.30;99.90
14709;DHT22;7445;50.774;4.944;2023-02-28T11:03:00;5.40;99.90
14709;DHT22;7445;50.774;4.944;2023-02-28T11:08:05;5.40;99.90
14709;DHT22;7445;50.774;4.944;2023-02-28T11:10:32;5.40;99.90
14709;DHT22;7445;50.774;4.944;2023-02-28T11:13:00;5.00;99.90
14709;DHT22;7445;50.774;4.944;2023-02-28T11:15:32;5.00;99.90
14709;DHT22;7445;50.774;4.944;2023-02-28T11:20:29;4.60;99.90
14709;DHT22;7445;50.774;4.944;2023-02-28T11:22:57;4.20;99.90
14709;DHT22;7445;50.774;4.944;2023-02-28T11:25:28;4.10;99.90
14709;DHT22;7445;50.774;4.944;2023-02-28T11:28:04;4.00;99.90
14709;DHT22;7445;50.774;4.944;2023-02-28T11:30:38;4.10;99.90
14709;DHT22;7445;50.774;4.944;2023-02-28T11:33:30;4.40;99.90
14709;DHT22;7445;50.774;4.944;2023-02-28T11:36:03;4.40;99.90
14709;DHT22;7445;50.774;4.944;2023-02-28T11:38:32;4.30;99.90
14709;DHT22;7445;50.774;4.944;2023-02-28T11:41:54;4.20;99.90
14709;DHT22;7445;50.774;4.944;2023-02-28T11:55:36;4.40;99.90
14709;DHT22;7445;50.774;4.944;2023-02-28T11:58:17;4.30;99.90
14709;DHT22;7445;50.774;4.944;2023-02-28T12:06:40;5.30;99.90
14709;DHT22;7445;50.774;4.944;2023-02-28T12:11:56;5.70;99.90
14709;DHT22;7445;50.774;4.944;2023-02-28T12:17:27;6.00;99.90
14709;DHT22;7445;50.774;4.944;2023-02-28T12:20:18;6.10;99.90
14709;DHT22;7445;50.774;4.944;2023-02-28T12:28:02;6.10;99.90
14709;DHT22;7445;50.774;4.944;2023-02-28T12:30:34;6.10;99.90
14709;DHT22;7445;50.774;4.944;2023-02-28T12:38:17;6.00;99.90
14709;DHT22;7445;50.774;4.944;2023-02-28T12:40:49;6.00;99.90
14709;DHT22;7445;50.774;4.944;2023-02-28T12:43:17;6.00;99.90
14709;DHT22;7445;50.774;4.944;2023-02-28T12:48:57;6.00;99.90
14709;DHT22;7445;50.774;4.944;2023-02-28T12:51:25;5.90;99.90
14709;DHT22;7445;50.774;4.944;2023-02-28T12:54:19;6.00;99.90
14709;DHT22;7445;50.774;4.944;2023-02-28T12:57:00;6.10;99.90
14709;DHT22;7445;50.774;4.944;2023-02-28T12:59:55;6.00;99.90
14709;DHT22;7445;50.774;4.944;2023-02-28T13:10:57;5.80;99.90
14709;DHT22;7445;50.774;4.944;2023-02-28T13:13:28;5.70;99.90
14709;DHT22;7445;50.774;4.944;2023-02-28T13:19:08;5.70;99.90
14709;DHT22;7445;50.774;4.944;2023-02-28T13:21:29;5.80;99.90
14709;DHT22;7445;50.774;4.944;2023-02-28T13:23:59;5.70;99.90
14709;DHT22;7445;50.774;4.944;2023-02-28T13:34:39;5.30;99.90
14709;DHT22;7445;50.774;4.944;2023-02-28T13:47:39;5.00;99.90
14709;DHT22;7445;50.774;4.944;2023-02-28T13:50:27;5.10;99.90
14709;DHT22;7445;50.774;4.944;2023-02-28T13:56:19;5.20;99.90
14709;DHT22;7445;50.774;4.944;2023-02-28T13:59:08;5.20;99.90
14709;DHT22;7445;50.774;4.944;2023-02-28T14:01:51;5.20;99.90
14709;DHT22;7445;50.774;4.944;2023-02-28T14:04:43;5.20;99.90
14709;DHT22;7445;50.774;4.944;2023-02-28T14:07:19;5.20;99.90
14709;DHT22;7445;50.774;4.944;2023-02-28T14:09:56;5.10;99.90
14709;DHT22;7445;50.774;4.944;2023-02-28T14:18:16;5.00;99.90
14709;DHT22;7445;50.774;4.944;2023-02-28T14:20:46;5.00;99.90
14709;DHT22;7445;50.774;4.944;2023-02-28T14:23:26;5.00;99.90
14709;DHT22;7445;50.774;4.944;2023-02-28T14:28:50;5.10;99.90
14709;DHT22;7445;50.774;4.944;2023-02-28T14:31:44;4.90;99.90
14709;DHT22;7445;50.774;4.944;2023-02-28T14:34:37;4.90;99.90
14709;DHT22;7445;50.774;4.944;2023-02-28T14:37:05;4.80;99.90
14709;DHT22;7445;50.774;4.944;2023-02-28T14:39:33;4.80;99.90
14709;DHT22;7445;50.774;4.944;2023-02-28T14:41:59;4.90;99.90
14709;DHT22;7445;50.774;4.944;2023-02-28T14:44:30;4.80;99.90
14709;DHT22;7445;50.774;4.944;2023-02-28T14:47:14;4.80;99.90
14709;DHT22;7445;50.774;4.944;2023-02-28T14:49:45;4.90;99.90
14709;DHT22;7445;50.774;4.944;2023-02-28T14:52:20;4.90;99.90
14709;DHT22;7445;50.774;4.944;2023-02-28T14:54:47;4.90;99.90
14709;DHT22;7445;50.774;4.944;2023-02-28T14:57:50;4.90;99.90
14709;DHT22;7445;50.774;4.944;2023-02-28T15:02:52;4.80;99.90
14709;DHT22;7445;50.774;4.944;2023-02-28T15:05:29;4.80;99.90
14709;DHT22;7445;50.774;4.944;2023-02-28T15:08:14;4.80;99.90
14709;DHT22;7445;50.774;4.944;2023-02-28T15:10:50;4.90;99.90
14709;DHT22;7445;50.774;4.944;2023-02-28T15:13:17;4.90;99.90
14709;DHT22;7445;50.774;4.944;2023-02-28T15:16:01;4.90;99.90
14709;DHT22;7445;50.774;4.944;2023-02-28T15:18:57;4.90;99.90
14709;DHT22;7445;50.774;4.944;2023-02-28T15:21:40;5.00;99.90
14709;DHT22;7445;50.774;4.944;2023-02-28T15:24:39;4.90;99.90
14709;DHT22;7445;50.774;4.944;2023-02-28T15:27:07;4.90;99.90
14709;DHT22;7445;50.774;4.944;2023-02-28T15:29:44;4.80;99.90
14709;DHT22;7445;50.774;4.944;2023-02-28T15:32:27;4.80;99.90
14709;DHT22;7445;50.774;4.944;2023-02-28T15:34:54;4.70;99.90
14709;DHT22;7445;50.774;4.944;2023-02-28T15:37:44;4.70;99.90
14709;DHT22;7445;50.774;4.944;2023-02-28T15:40:29;4.60;99.90
14709;DHT22;7445;50.774;4.944;2023-02-28T15:42:59;4.60;99.90
14709;DHT22;7445;50.774;4.944;2023-02-28T15:45:38;4.60;99.90
14709;DHT22;7445;50.774;4.944;2023-02-28T15:48:20;4.60;99.90
14709;DHT22;7445;50.774;4.944;2023-02-28T15:50:55;4.60;99.90
14709;DHT22;7445;50.774;4.944;2023-02-28T15:53:30;4.50;99.90
14709;DHT22;7445;50.774;4.944;2023-02-28T15:56:04;4.50;99.90
14709;DHT22;7445;50.774;4.944;2023-02-28T15:58:33;4.40;99.90
14709;DHT22;7445;50.774;4.944;2023-02-28T16:01:05;4.40;99.90
14709;DHT22;7445;50.774;4.944;2023-02-28T16:03:40;4.40;99.90
14709;DHT22;7445;50.774;4.944;2023-02-28T16:08:48;4.30;99.90
14709;DHT22;7445;50.774;4.944;2023-02-28T16:11:14;4.30;99.90
14709;DHT22;7445;50.774;4.944;2023-02-28T16:13:40;4.30;99.90
14709;DHT22;7445;50.774;4.944;2023-02-28T16:16:06;4.30;99.90
14709;DHT22;7445;50.774;4.944;2023-02-28T16:18:31;4.20;99.90
14709;DHT22;7445;50.774;4.944;2023-02-28T16:20:57;4.20;99.90
14709;DHT22;7445;50.774;4.944;2023-02-28T16:23:22;4.20;99.90
14709;DHT22;7445;50.774;4.944;2023-02-28T16:25:48;4.20;99.90
14709;DHT22;7445;50.774;4.944;2023-02-28T16:28:18;4.20;99.90
14709;DHT22;7445;50.774;4.944;2023-02-28T16:30:44;4.20;99.90
14709;DHT22;7445;50.774;4.944;2023-02-28T16:33:10;4.10;99.90
14709;DHT22;7445;50.774;4.944;2023-02-28T16:35:36;4.00;99.90
14709;DHT22;7445;50.774;4.944;2023-02-28T16:38:01;3.90;99.90
14709;DHT22;7445;50.774;4.944;2023-02-28T16:40:27;3.90;99.90
14709;DHT22;7445;50.774;4.944;2023-02-28T16:42:58;3.90;99.90
14709;DHT22;7445;50.774;4.944;2023-02-28T16:45:28;3.80;99.90
14709;DHT22;7445;50.774;4.944;2023-02-28T16:47:54;3.80;99.90
14709;DHT22;7445;50.774;4.944;2023-02-28T16:50:23;3.80;99.90
14709;DHT22;7445;50.774;4.944;2023-02-28T16:52:50;3.70;99.90
14709;DHT22;7445;50.774;4.944;2023-02-28T16:55:18;3.60;99.90
14709;DHT22;7445;50.774;4.944;2023-02-28T16:57:52;3.60;99.90
14709;DHT22;7445;50.774;4.944;2023-02-28T17:00:18;3.50;99.90
14709;DHT22;7445;50.774;4.944;2023-02-28T17:02:44;3.40;99.90
14709;DHT22;7445;50.774;4.944;2023-02-28T17:05:13;3.40;99.90
14709;DHT22;7445;50.774;4.944;2023-02-28T17:07:40;3.40;99.90
14709;DHT22;7445;50.774;4.944;2023-02-28T17:12:39;3.20;99.90
14709;DHT22;7445;50.774;4.944;2023-02-28T17:15:06;3.10;99.90
14709;DHT22;7445;50.774;4.944;2023-02-28T17:17:32;3.10;99.90
14709;DHT22;7445;50.774;4.944;2023-02-28T17:19:59;2.90;99.90
14709;DHT22;7445;50.774;4.944;2023-02-28T17:22:24;2.90;99.90
14709;DHT22;7445;50.774;4.944;2023-02-28T17:24:51;2.80;99.90
14709;DHT22;7445;50.774;4.944;2023-02-28T17:27:20;2.80;99.90
14709;DHT22;7445;50.774;4.944;2023-02-28T17:29:46;2.70;99.90
